This is the latest recevied weather packets stored in our database for station/object YO6RK-13. If no packets are shown the sender has not sent any weather packets the latest 10 day(s).
| Time | Temp. | Humidity | Pressure | Rain* | Wind** | Luminosity | Snow |
|---|---|---|---|---|---|---|---|
| 1777649725 | 11.67° C | 37% | 1019.8 hPa | 0 mm | - | - | - |
| 1777647320 | 11.67° C | 37% | 1019.9 hPa | 0 mm | - | - | - |
| 1777647037 | 11.67° C | 35% | 1019.8 hPa | 0 mm | - | - | - |
| 1777646435 | 12.22° C | 35% | 1019.7 hPa | 0 mm | - | - | - |
| 1777644011 | 12.78° C | 32% | 1019.9 hPa | 0 mm | - | - | - |
| 1777643710 | 13.33° C | 35% | 1020 hPa | 0 mm | - | - | - |
| 1777639833 | 12.22° C | 36% | 1020.1 hPa | 0 mm | - | - | - |
| 1777635325 | 12.78° C | 32% | 1021 hPa | 0 mm | - | - | - |
| 1777635033 | 13.33° C | 35% | 1021 hPa | 0 mm | - | - | - |
| 1777632625 | 13.33° C | 36% | 1021.2 hPa | 0 mm | - | - | - |
| 1777632034 | 12.22° C | 37% | 1021.3 hPa | 0 mm | - | - | - |
| 1777629630 | 12.22° C | 37% | 1021.6 hPa | 0 mm | - | - | - |
| 1777628134 | 10.56° C | 40% | 1021.7 hPa | 0 mm | - | - | - |
| 1777622732 | 8.33° C | 40% | 1022.1 hPa | 0 mm | - | - | - |
| 1777620629 | 8.33° C | 48% | 1022.4 hPa | 0 mm | - | - | - |
| 1777619717 | 8.33° C | 53% | 1022.4 hPa | 0 mm | - | - | - |
| 1777616420 | 4.44° C | 75% | 1022.3 hPa | 0 mm | - | - | - |
| 1777615523 | 2.22° C | 82% | 1022.5 hPa | 0 mm | - | - | - |
| 1777614928 | 2.22° C | 83% | 1022.4 hPa | 0 mm | - | - | - |
| 1777613131 | 1.67° C | 86% | 1022.4 hPa | 0 mm | - | - | - |
| 1777612211 | 1.11° C | 87% | 1022.5 hPa | 0 mm | - | - | - |
| 1777611934 | 1.11° C | 88% | 1022.5 hPa | 0 mm | - | - | - |
| 1777610125 | -0.56° C | 90% | 1022.3 hPa | 0 mm | - | - | - |
| 1777608025 | -1.67° C | 91% | 1022.3 hPa | 0 mm | - | - | - |
| 1777604516 | -2.78° C | 90% | 1022.2 hPa | 0 mm | - | - | - |
* Rain latest hour (hover to see other rain measurements)
** Current wind speed in m/s (hover to see current wind gust speed)